Time;durP1;ratioP1;P1;durP2;ratioP2;P2;SDS_P1;SDS_P2;PMS_P1;PMS_P2;Temp;Humidity;BMP_temperature;BMP_pressure;BME280_temperature;BME280_humidity;BME280_pressure;Samples;Min_cycle;Max_cycle;Signal;HPM_P1;HPM_P2
2023/03/05 00:00:29;;;;;;;1.45;1.33;;;6.60;99.90;;;;;;4965334;28;20252;-73
2023/03/05 00:02:57;;;;;;;1.35;1.25;;;6.70;99.90;;;;;;4965741;28;20295;-73
2023/03/05 00:05:25;;;;;;;1.70;1.23;;;6.80;99.90;;;;;;4971215;28;20713;-73
2023/03/05 00:07:53;;;;;;;1.27;1.17;;;6.80;99.90;;;;;;4969789;28;20225;-72
2023/03/05 00:10:21;;;;;;;0.93;0.90;;;6.60;99.90;;;;;;4959535;28;20229;-74
2023/03/05 00:12:49;;;;;;;1.23;1.13;;;6.50;99.90;;;;;;4967550;28;20294;-73
2023/03/05 00:15:17;;;;;;;1.40;1.15;;;6.50;99.90;;;;;;4966926;28;20202;-72
2023/03/05 00:17:46;;;;;;;5.75;1.45;;;6.60;99.90;;;;;;4970904;28;20735;-73
2023/03/05 00:20:14;;;;;;;1.30;1.10;;;6.60;99.90;;;;;;4970310;28;20605;-72
2023/03/05 00:22:42;;;;;;;1.35;1.10;;;6.40;99.90;;;;;;4964033;28;20234;-72
2023/03/05 00:25:10;;;;;;;3.08;1.77;;;6.60;99.90;;;;;;4965330;28;20676;-72
2023/03/05 00:27:38;;;;;;;2.30;1.20;;;6.40;99.90;;;;;;4970872;28;20313;-73
2023/03/05 00:30:08;;;;;;;1.38;1.27;;;6.60;99.90;;;;;;4962606;28;20294;-73
2023/03/05 00:32:36;;;;;;;1.42;1.33;;;6.30;99.90;;;;;;4964346;28;20222;-72
2023/03/05 00:35:06;;;;;;;1.35;0.90;;;6.50;99.90;;;;;;4968772;28;20217;-74
2023/03/05 00:37:34;;;;;;;3.08;1.55;;;6.60;99.90;;;;;;4973654;28;20203;-74
2023/03/05 00:40:02;;;;;;;1.15;1.05;;;6.50;99.90;;;;;;4970434;28;20298;-73
2023/03/05 00:42:30;;;;;;;1.70;1.60;;;6.50;99.90;;;;;;4971921;28;20203;-73
2023/03/05 00:44:58;;;;;;;1.38;1.00;;;6.40;99.90;;;;;;4971325;28;20246;-75
2023/03/05 00:47:27;;;;;;;1.88;1.35;;;6.30;99.90;;;;;;4974567;28;20661;-75
2023/03/05 00:49:55;;;;;;;1.00;0.90;;;6.50;99.90;;;;;;4965929;28;20252;-71
2023/03/05 00:52:24;;;;;;;1.10;0.90;;;6.60;99.90;;;;;;4958815;28;20305;-71
2023/03/05 00:54:52;;;;;;;1.52;1.20;;;6.60;99.90;;;;;;4966652;28;20298;-71
2023/03/05 00:57:20;;;;;;;1.23;1.10;;;6.50;99.90;;;;;;4959021;28;20216;-73
2023/03/05 00:59:53;;;;;;;2.42;1.35;;;6.60;99.90;;;;;;4965844;28;20234;-73
2023/03/05 01:02:21;;;;;;;0.85;0.77;;;6.70;99.90;;;;;;4956364;28;20229;-72
2023/03/05 01:04:49;;;;;;;0.80;0.55;;;6.60;99.90;;;;;;4952079;28;21154;-73
2023/03/05 01:07:21;;;;;;;1.00;0.93;;;6.60;99.90;;;;;;4953239;29;20261;-72
2023/03/05 01:09:50;;;;;;;1.30;1.20;;;6.50;99.90;;;;;;4960105;28;20301;-72
2023/03/05 01:12:18;;;;;;;1.70;0.90;;;6.40;99.90;;;;;;4954193;28;20311;-72
2023/03/05 01:14:46;;;;;;;0.90;0.80;;;6.40;99.90;;;;;;4955650;28;20206;-72
2023/03/05 01:17:14;;;;;;;1.02;0.90;;;6.40;99.90;;;;;;4954117;28;20905;-72
2023/03/05 01:19:42;;;;;;;1.00;0.90;;;6.40;99.90;;;;;;4952547;28;20306;-72
2023/03/05 01:22:09;;;;;;;1.30;0.75;;;6.50;99.90;;;;;;4953305;28;20334;-73
2023/03/05 01:24:37;;;;;;;1.20;0.95;;;6.50;99.90;;;;;;4949559;28;20664;-73
2023/03/05 01:27:07;;;;;;;2.45;1.45;;;6.70;99.90;;;;;;4952101;28;20599;-73
2023/03/05 01:29:36;;;;;;;0.60;0.60;;;6.70;99.90;;;;;;4952556;28;20245;-73
2023/03/05 01:32:04;;;;;;;1.23;1.00;;;6.80;99.90;;;;;;4949925;28;20322;-76
2023/03/05 01:34:32;;;;;;;1.00;0.90;;;6.60;99.90;;;;;;4951874;28;20203;-73
2023/03/05 01:37:00;;;;;;;2.00;1.13;;;6.30;99.90;;;;;;4952259;28;20295;-74
2023/03/05 01:39:28;;;;;;;1.10;0.80;;;6.40;99.90;;;;;;4953375;28;20595;-73
2023/03/05 01:41:56;;;;;;;1.58;0.90;;;6.70;99.90;;;;;;4951231;28;20234;-73
2023/03/05 01:44:27;;;;;;;0.95;0.85;;;6.70;99.90;;;;;;4966713;28;20208;-72
2023/03/05 01:46:56;;;;;;;1.10;0.90;;;6.60;99.90;;;;;;4956378;28;20294;-74
2023/03/05 01:49:26;;;;;;;2.55;1.10;;;6.80;99.90;;;;;;4950808;29;20697;-75
2023/03/05 01:52:01;;;;;;;1.00;0.75;;;6.80;99.90;;;;;;4951335;28;20611;-71
2023/03/05 01:54:33;;;;;;;1.45;1.00;;;6.90;99.90;;;;;;4948594;29;20211;-72
2023/03/05 01:57:07;;;;;;;1.77;1.17;;;7.10;99.90;;;;;;4950019;28;20367;-72
2023/03/05 01:59:38;;;;;;;0.70;0.60;;;7.30;99.90;;;;;;4952834;28;20290;-71
2023/03/05 02:02:06;;;;;;;0.75;0.60;;;7.30;99.90;;;;;;4951509;28;20306;-71
2023/03/05 02:04:41;;;;;;;0.70;0.52;;;7.40;99.90;;;;;;4951432;28;20211;-71
2023/03/05 02:07:10;;;;;;;1.55;1.00;;;7.60;99.90;;;;;;4953472;28;20290;-70
2023/03/05 02:09:39;;;;;;;1.73;0.95;;;7.70;99.90;;;;;;4954969;28;20234;-71
2023/03/05 02:12:08;;;;;;;0.80;0.80;;;7.90;99.90;;;;;;4950905;28;20709;-70
2023/03/05 02:14:39;;;;;;;2.15;0.80;;;7.90;99.90;;;;;;4951033;28;20286;-70
2023/03/05 02:17:08;;;;;;;0.90;0.70;;;8.10;99.90;;;;;;4951715;28;20210;-71
2023/03/05 02:19:47;;;;;;;1.35;1.08;;;8.10;99.90;;;;;;4951101;28;20207;-72
2023/03/05 02:22:17;;;;;;;1.15;0.90;;;8.10;99.90;;;;;;4952034;28;20322;-71
2023/03/05 02:24:45;;;;;;;3.63;1.25;;;8.20;99.90;;;;;;4949442;29;20203;-71
2023/03/05 02:27:13;;;;;;;0.93;0.73;;;8.20;99.90;;;;;;4948777;28;20214;-71
2023/03/05 02:29:44;;;;;;;0.65;0.65;;;8.20;99.90;;;;;;4953292;28;20228;-71
2023/03/05 02:32:13;;;;;;;0.85;0.60;;;8.30;99.90;;;;;;4948388;29;20231;-71
2023/03/05 02:34:41;;;;;;;1.65;1.15;;;8.30;99.90;;;;;;4950935;28;20594;-72
2023/03/05 02:37:09;;;;;;;1.08;0.98;;;8.20;99.90;;;;;;4949520;29;20223;-71
2023/03/05 02:39:38;;;;;;;1.00;0.90;;;8.30;99.90;;;;;;4950251;28;20284;-72
2023/03/05 02:42:06;;;;;;;0.80;0.73;;;8.20;99.90;;;;;;4948773;28;20230;-72
2023/03/05 02:44:34;;;;;;;1.35;0.77;;;8.20;99.90;;;;;;4953683;28;20207;-73
2023/03/05 02:47:02;;;;;;;1.15;0.90;;;8.30;99.90;;;;;;4954256;28;20266;-72
2023/03/05 02:49:30;;;;;;;1.00;0.90;;;8.10;99.90;;;;;;4964940;28;20227;-71
2023/03/05 02:51:58;;;;;;;1.48;0.82;;;8.20;99.90;;;;;;4954939;28;20273;-74
2023/03/05 02:54:26;;;;;;;1.58;0.90;;;8.30;99.90;;;;;;4961321;28;20391;-74
2023/03/05 02:56:55;;;;;;;1.38;1.00;;;8.30;99.90;;;;;;4962036;28;20239;-73
2023/03/05 02:59:23;;;;;;;0.63;0.50;;;8.30;99.90;;;;;;4958796;28;20662;-72
2023/03/05 03:01:51;;;;;;;0.90;0.70;;;8.20;99.90;;;;;;4950977;28;20710;-72
2023/03/05 03:04:18;;;;;;;1.50;0.70;;;8.20;99.90;;;;;;4951555;28;20696;-72
2023/03/05 03:06:46;;;;;;;1.23;0.60;;;8.30;99.90;;;;;;4959646;28;20669;-72
2023/03/05 03:09:14;;;;;;;0.80;0.65;;;8.30;99.90;;;;;;4954884;28;20611;-71
2023/03/05 03:11:42;;;;;;;0.70;0.70;;;8.20;99.90;;;;;;4951262;28;20231;-73
2023/03/05 03:14:11;;;;;;;2.22;1.20;;;8.30;99.90;;;;;;4948744;28;20234;-72
2023/03/05 03:16:39;;;;;;;0.80;0.80;;;8.30;99.90;;;;;;4948990;28;20235;-73
2023/03/05 03:19:07;;;;;;;1.42;1.27;;;8.30;99.90;;;;;;4954249;28;20271;-72
2023/03/05 03:21:35;;;;;;;1.33;1.10;;;8.30;99.90;;;;;;4977389;23;20254;-63
2023/03/05 03:24:03;;;;;;;1.00;0.80;;;8.30;99.90;;;;;;4956760;28;20297;-64
2023/03/05 03:26:30;;;;;;;1.38;0.95;;;8.30;99.90;;;;;;4962728;28;20285;-63
2023/03/05 03:28:58;;;;;;;0.70;0.70;;;8.30;99.90;;;;;;4966693;28;20227;-64
2023/03/05 03:31:27;;;;;;;1.65;1.52;;;8.30;99.90;;;;;;4958556;28;20234;-64
2023/03/05 03:33:55;;;;;;;0.88;0.82;;;8.30;99.90;;;;;;4947886;28;20613;-63
2023/03/05 03:36:23;;;;;;;1.23;0.93;;;8.10;99.90;;;;;;4947160;29;20211;-64
2023/03/05 03:38:51;;;;;;;0.98;0.70;;;8.10;99.90;;;;;;4950775;28;20228;-63
2023/03/05 03:41:19;;;;;;;1.13;0.95;;;8.10;99.90;;;;;;4950252;28;20604;-63
2023/03/05 03:43:47;;;;;;;1.08;0.98;;;8.10;99.90;;;;;;4946374;29;20211;-64
2023/03/05 03:46:14;;;;;;;1.45;1.35;;;8.20;99.90;;;;;;4947768;28;20207;-63
2023/03/05 03:48:44;;;;;;;1.25;0.85;;;8.20;99.90;;;;;;4944168;28;20207;-63
2023/03/05 03:51:12;;;;;;;3.08;1.20;;;8.10;99.90;;;;;;4953022;28;20227;-64
2023/03/05 03:53:39;;;;;;;1.20;1.10;;;8.10;99.90;;;;;;4951267;28;20213;-64
2023/03/05 03:56:07;;;;;;;1.60;1.50;;;7.90;99.90;;;;;;4947575;28;20214;-64
2023/03/05 03:58:35;;;;;;;1.70;1.27;;;7.70;99.90;;;;;;4949789;28;20569;-64
2023/03/05 04:01:03;;;;;;;1.30;0.85;;;7.70;99.90;;;;;;4945526;28;20797;-64
2023/03/05 04:03:31;;;;;;;0.80;0.80;;;7.70;99.90;;;;;;4952506;28;20211;-61
2023/03/05 04:06:01;;;;;;;2.55;1.15;;;7.60;99.90;;;;;;4947178;28;20218;-62
2023/03/05 04:08:28;;;;;;;0.88;0.88;;;7.50;99.90;;;;;;4943712;28;20241;-61
2023/03/05 04:10:56;;;;;;;0.80;0.73;;;7.60;99.90;;;;;;4949628;28;20268;-62
2023/03/05 04:13:24;;;;;;;1.50;1.10;;;7.50;99.90;;;;;;4946450;28;20305;-62
2023/03/05 04:15:52;;;;;;;1.20;1.10;;;7.20;99.90;;;;;;4946288;28;20203;-63
2023/03/05 04:18:20;;;;;;;1.10;0.85;;;7.20;99.90;;;;;;4949589;28;20215;-62
2023/03/05 04:20:48;;;;;;;2.28;1.50;;;7.00;99.90;;;;;;4946636;28;20770;-62
2023/03/05 04:23:17;;;;;;;0.85;0.70;;;7.10;99.90;;;;;;4950330;28;20305;-62
2023/03/05 04:25:45;;;;;;;0.80;0.80;;;6.90;99.90;;;;;;4943400;28;20212;-62
2023/03/05 04:28:13;;;;;;;1.05;0.80;;;6.50;99.90;;;;;;4951680;28;20214;-62
2023/03/05 04:30:41;;;;;;;3.03;1.52;;;6.30;99.90;;;;;;4950067;28;20273;-62
2023/03/05 04:33:09;;;;;;;1.05;0.63;;;6.30;99.90;;;;;;4950880;29;20208;-61
2023/03/05 04:35:37;;;;;;;1.13;0.80;;;6.40;99.90;;;;;;4951463;28;20210;-62
2023/03/05 04:38:05;;;;;;;4.10;1.08;;;6.60;99.90;;;;;;4948905;28;20286;-62
2023/03/05 04:40:35;;;;;;;0.95;0.85;;;6.50;99.90;;;;;;4945208;28;20569;-61
2023/03/05 04:43:04;;;;;;;2.10;1.00;;;6.60;99.90;;;;;;4955520;28;20242;-62
2023/03/05 04:45:33;;;;;;;1.45;1.10;;;6.70;99.90;;;;;;4953273;28;20211;-61
2023/03/05 04:48:01;;;;;;;0.70;0.60;;;6.30;99.90;;;;;;4954604;28;20214;-62
2023/03/05 04:50:29;;;;;;;1.25;1.15;;;6.20;99.90;;;;;;4950526;28;20244;-61
2023/03/05 04:52:58;;;;;;;0.75;0.57;;;6.20;99.90;;;;;;4953134;28;20325;-61
2023/03/05 04:55:26;;;;;;;1.85;1.00;;;5.90;99.90;;;;;;4951876;28;20210;-61
2023/03/05 04:57:55;;;;;;;0.70;0.50;;;5.60;99.90;;;;;;4954251;28;20217;-61
2023/03/05 05:00:24;;;;;;;1.70;0.70;;;5.50;99.90;;;;;;4950948;28;20206;-61
2023/03/05 05:02:52;;;;;;;0.70;0.60;;;5.40;99.90;;;;;;4947869;28;20248;-61
2023/03/05 05:05:22;;;;;;;1.00;0.65;;;5.50;99.90;;;;;;4953310;28;20274;-62
2023/03/05 05:07:53;;;;;;;2.08;1.08;;;5.60;99.90;;;;;;4945428;28;20210;-62
2023/03/05 05:10:21;;;;;;;0.80;0.60;;;5.60;99.90;;;;;;4949878;28;20559;-63
2023/03/05 05:12:49;;;;;;;0.70;0.57;;;5.40;99.90;;;;;;4947316;28;20247;-62
2023/03/05 05:15:18;;;;;;;1.23;0.60;;;5.20;99.90;;;;;;4948925;28;20253;-62
2023/03/05 05:17:47;;;;;;;0.73;0.50;;;5.30;99.90;;;;;;4949294;29;20564;-62
2023/03/05 05:20:16;;;;;;;1.45;0.85;;;5.70;99.90;;;;;;4949910;28;20297;-62
2023/03/05 05:22:44;;;;;;;1.05;0.60;;;6.00;99.90;;;;;;4948918;28;20242;-62
2023/03/05 05:25:12;;;;;;;1.90;0.85;;;6.30;99.90;;;;;;4946943;28;20287;-62
2023/03/05 05:27:40;;;;;;;1.10;1.00;;;6.50;99.90;;;;;;4949955;28;20288;-62
2023/03/05 05:30:10;;;;;;;0.70;0.68;;;6.60;99.90;;;;;;4945974;29;20248;-62
2023/03/05 05:32:39;;;;;;;0.70;0.70;;;6.80;99.90;;;;;;4946584;28;20227;-62
2023/03/05 05:35:07;;;;;;;0.70;0.50;;;6.80;99.90;;;;;;4949478;29;20206;-62
2023/03/05 05:37:35;;;;;;;2.45;0.98;;;6.90;99.90;;;;;;4954363;28;20289;-61
2023/03/05 05:40:05;;;;;;;0.60;0.50;;;6.90;99.90;;;;;;4947564;28;20582;-62
2023/03/05 05:42:33;;;;;;;1.17;0.60;;;6.90;99.90;;;;;;4951614;28;20256;-62
2023/03/05 05:45:02;;;;;;;0.93;0.60;;;7.10;99.90;;;;;;4947421;28;20214;-62
2023/03/05 05:47:30;;;;;;;1.10;0.75;;;7.10;99.90;;;;;;4952521;28;20245;-62
2023/03/05 05:49:59;;;;;;;1.00;0.93;;;7.10;99.90;;;;;;4951590;28;20211;-62
2023/03/05 05:52:27;;;;;;;0.70;0.70;;;7.20;99.90;;;;;;4948160;28;20668;-62
2023/03/05 05:54:55;;;;;;;0.93;0.70;;;7.30;99.90;;;;;;4945917;28;20709;-62
2023/03/05 05:57:23;;;;;;;0.70;0.63;;;7.40;99.90;;;;;;4962055;28;20236;-62
2023/03/05 05:59:52;;;;;;;2.15;0.80;;;7.40;99.90;;;;;;4952800;28;20239;-62
2023/03/05 06:02:19;;;;;;;0.70;0.57;;;7.50;99.90;;;;;;4960990;28;20238;-62
2023/03/05 06:04:47;;;;;;;0.93;0.60;;;7.50;99.90;;;;;;4962365;28;20203;-62
2023/03/05 06:07:16;;;;;;;0.90;0.40;;;7.50;99.90;;;;;;4962511;28;20264;-62
2023/03/05 06:09:44;;;;;;;0.82;0.82;;;7.50;99.90;;;;;;4959369;28;20575;-61
2023/03/05 06:12:12;;;;;;;0.60;0.57;;;7.60;99.90;;;;;;4954287;28;20255;-63
2023/03/05 06:14:40;;;;;;;0.80;0.50;;;7.50;99.90;;;;;;4965716;28;20220;-62
2023/03/05 06:17:08;;;;;;;1.00;0.50;;;7.50;99.90;;;;;;4965488;28;20207;-61
2023/03/05 06:19:39;;;;;;;0.70;0.68;;;7.50;99.90;;;;;;4954780;28;20590;-62
2023/03/05 06:22:07;;;;;;;0.80;0.80;;;7.50;99.90;;;;;;4961717;28;20326;-62
2023/03/05 06:24:37;;;;;;;3.30;0.75;;;7.50;99.90;;;;;;4965232;28;20677;-62
2023/03/05 06:27:06;;;;;;;0.80;0.50;;;7.50;99.90;;;;;;4965375;28;20213;-61
2023/03/05 06:29:34;;;;;;;1.35;0.50;;;7.60;99.90;;;;;;4962280;28;20218;-62
2023/03/05 06:32:01;;;;;;;0.82;0.70;;;7.60;99.90;;;;;;4961790;28;20235;-61
2023/03/05 06:34:29;;;;;;;0.70;0.70;;;7.30;99.90;;;;;;4964199;28;20686;-61
2023/03/05 06:36:57;;;;;;;0.70;0.50;;;7.20;99.90;;;;;;4965136;28;20211;-62
2023/03/05 06:39:25;;;;;;;0.82;0.65;;;7.10;99.90;;;;;;4955099;28;20296;-62
2023/03/05 06:41:54;;;;;;;0.70;0.50;;;7.00;99.90;;;;;;4953682;28;20314;-62
2023/03/05 06:44:22;;;;;;;1.00;0.60;;;7.00;99.90;;;;;;4962974;28;20299;-62
2023/03/05 06:46:50;;;;;;;0.70;0.52;;;7.00;99.90;;;;;;4964964;28;20297;-62
2023/03/05 06:49:17;;;;;;;1.10;0.70;;;7.10;99.90;;;;;;4964169;28;20720;-63
2023/03/05 06:51:45;;;;;;;0.70;0.50;;;7.20;99.90;;;;;;4961509;28;20318;-62
2023/03/05 06:54:15;;;;;;;1.15;0.52;;;7.30;99.90;;;;;;4961695;28;20210;-63
2023/03/05 06:56:45;;;;;;;0.70;0.65;;;7.20;99.90;;;;;;4965117;28;20252;-62
2023/03/05 06:59:15;;;;;;;0.60;0.50;;;7.30;99.90;;;;;;4964250;28;20206;-63
2023/03/05 07:01:43;;;;;;;0.90;0.77;;;7.20;99.90;;;;;;4957183;28;20260;-62
2023/03/05 07:04:12;;;;;;;0.88;0.80;;;7.20;99.90;;;;;;4964879;28;20301;-61
2023/03/05 07:06:41;;;;;;;1.35;0.70;;;7.10;99.90;;;;;;4956818;28;20293;-62
2023/03/05 07:09:12;;;;;;;1.25;1.15;;;7.10;99.90;;;;;;4957484;28;20744;-62
2023/03/05 07:11:40;;;;;;;0.85;0.52;;;7.00;99.90;;;;;;4956416;28;20684;-62
2023/03/05 07:14:08;;;;;;;1.40;0.80;;;7.00;99.90;;;;;;4959345;28;20302;-63
2023/03/05 07:16:37;;;;;;;0.70;0.70;;;7.10;99.90;;;;;;4960929;28;20234;-62
2023/03/05 07:19:06;;;;;;;0.60;0.60;;;7.00;99.90;;;;;;4961134;28;20673;-63
2023/03/05 07:21:34;;;;;;;0.80;0.63;;;6.80;99.90;;;;;;4963157;28;20249;-63
2023/03/05 07:24:07;;;;;;;1.17;0.70;;;6.60;99.90;;;;;;4964516;28;20219;-63
2023/03/05 07:26:35;;;;;;;1.05;0.90;;;6.40;99.90;;;;;;4961219;28;20215;-62
2023/03/05 07:29:04;;;;;;;1.08;0.75;;;6.20;99.90;;;;;;4961050;28;20313;-63
2023/03/05 07:31:32;;;;;;;1.23;1.00;;;5.90;99.90;;;;;;4962644;28;20689;-62
2023/03/05 07:34:02;;;;;;;2.75;1.67;;;5.80;99.90;;;;;;4964527;28;20585;-62
2023/03/05 07:36:31;;;;;;;1.20;0.90;;;5.70;99.90;;;;;;4962085;28;20213;-62
2023/03/05 07:38:58;;;;;;;1.33;1.23;;;5.70;99.90;;;;;;4958166;28;20247;-62
2023/03/05 07:41:26;;;;;;;1.00;0.90;;;5.60;99.90;;;;;;4952992;28;20293;-62
2023/03/05 07:43:55;;;;;;;1.40;1.10;;;5.30;99.90;;;;;;4961096;28;20218;-62
2023/03/05 07:46:25;;;;;;;2.50;1.77;;;5.20;99.90;;;;;;4960309;28;20205;-62
2023/03/05 07:48:54;;;;;;;1.85;1.15;;;5.20;99.90;;;;;;4960343;28;20300;-62
2023/03/05 07:51:24;;;;;;;1.50;1.33;;;5.20;99.90;;;;;;4960500;28;20241;-62
2023/03/05 07:53:54;;;;;;;2.13;1.40;;;5.10;99.90;;;;;;4963745;28;20211;-62
2023/03/05 07:56:23;;;;;;;1.73;1.30;;;5.00;99.90;;;;;;4962794;28;20216;-62
2023/03/05 07:58:51;;;;;;;2.20;2.00;;;5.00;99.90;;;;;;4960313;28;20647;-62
2023/03/05 08:01:19;;;;;;;1.25;1.05;;;4.90;99.90;;;;;;4960359;28;20376;-62
2023/03/05 08:03:47;;;;;;;1.50;1.23;;;4.90;99.90;;;;;;4963474;28;20296;-62
2023/03/05 08:06:15;;;;;;;1.65;1.20;;;4.80;99.90;;;;;;4963559;28;20213;-62
2023/03/05 08:08:44;;;;;;;1.52;1.10;;;4.70;99.90;;;;;;4952038;28;20208;-62
2023/03/05 08:11:14;;;;;;;1.92;1.35;;;4.70;99.90;;;;;;4952954;28;20316;-62
2023/03/05 08:13:42;;;;;;;1.58;1.48;;;4.70;99.90;;;;;;4964021;28;20206;-62
2023/03/05 08:16:13;;;;;;;1.60;1.08;;;4.80;99.90;;;;;;4963955;28;20276;-62
2023/03/05 08:18:41;;;;;;;1.02;0.95;;;4.70;99.90;;;;;;4966797;28;20210;-62
2023/03/05 08:21:16;;;;;;;1.20;1.08;;;4.70;99.90;;;;;;4966812;28;20242;-62
2023/03/05 08:23:46;;;;;;;0.98;0.88;;;4.70;99.90;;;;;;4956338;28;20290;-62
2023/03/05 08:26:14;;;;;;;1.10;0.60;;;4.80;99.90;;;;;;4963731;28;20245;-63
2023/03/05 08:28:43;;;;;;;2.60;1.75;;;4.80;99.90;;;;;;4966674;28;20253;-62
2023/03/05 08:31:12;;;;;;;1.27;1.10;;;4.80;99.90;;;;;;4966758;28;20337;-62
2023/03/05 08:33:40;;;;;;;1.35;1.10;;;4.80;99.90;;;;;;4964074;28;20280;-62
2023/03/05 08:36:09;;;;;;;2.25;1.02;;;4.80;99.90;;;;;;4963724;28;20293;-63
2023/03/05 08:38:37;;;;;;;1.33;0.85;;;4.80;99.90;;;;;;4957246;28;20335;-62
2023/03/05 08:41:06;;;;;;;1.55;1.30;;;4.90;99.90;;;;;;4955526;28;20341;-62
2023/03/05 08:43:34;;;;;;;1.20;1.10;;;4.90;99.90;;;;;;4963394;28;20244;-62
2023/03/05 08:46:03;;;;;;;2.47;1.65;;;5.00;99.90;;;;;;4963562;28;20305;-62
2023/03/05 08:48:31;;;;;;;1.15;1.00;;;5.00;99.90;;;;;;4964813;28;20215;-62
2023/03/05 08:51:05;;;;;;;2.40;1.92;;;5.10;99.90;;;;;;4966497;28;20296;-62
2023/03/05 08:53:33;;;;;;;1.42;1.33;;;5.10;99.90;;;;;;4964718;28;20789;-62
2023/03/05 08:56:02;;;;;;;2.30;1.50;;;5.10;99.90;;;;;;4963159;28;20218;-62
2023/03/05 08:58:32;;;;;;;1.35;1.25;;;5.20;99.90;;;;;;4964272;28;20298;-62
2023/03/05 09:01:00;;;;;;;1.10;0.90;;;5.20;99.90;;;;;;4966306;28;20247;-63
2023/03/05 09:03:28;;;;;;;1.58;1.40;;;5.10;99.90;;;;;;4961706;28;20213;-62
2023/03/05 09:05:59;;;;;;;1.17;1.08;;;5.20;99.90;;;;;;4955394;28;20221;-62
2023/03/05 09:08:28;;;;;;;4.82;2.25;;;5.30;99.90;;;;;;4962431;28;20241;-62
2023/03/05 09:10:56;;;;;;;1.60;1.23;;;5.30;99.90;;;;;;4954820;28;20253;-63
2023/03/05 09:13:24;;;;;;;2.50;2.30;;;5.30;99.90;;;;;;4963064;28;20227;-62
2023/03/05 09:15:57;;;;;;;1.48;1.35;;;5.30;99.90;;;;;;4963029;28;20225;-64
2023/03/05 09:18:25;;;;;;;2.25;1.42;;;5.40;99.90;;;;;;4963018;28;20317;-63
2023/03/05 09:20:54;;;;;;;2.55;1.45;;;5.50;99.90;;;;;;4965390;28;20316;-62
2023/03/05 09:23:22;;;;;;;1.05;0.95;;;5.60;99.90;;;;;;4965852;28;20205;-62
2023/03/05 09:25:51;;;;;;;2.20;2.00;;;5.70;99.90;;;;;;4957617;28;20281;-63
2023/03/05 09:28:18;;;;;;;1.50;1.13;;;5.80;99.90;;;;;;4953712;28;20216;-63
2023/03/05 09:30:46;;;;;;;2.30;1.77;;;5.60;99.90;;;;;;4953725;28;20214;-62
2023/03/05 09:33:16;;;;;;;2.13;1.42;;;5.60;99.90;;;;;;4954620;28;20222;-63
2023/03/05 09:35:44;;;;;;;1.70;1.15;;;5.60;99.90;;;;;;4954514;28;20746;-63
2023/03/05 09:38:11;;;;;;;1.25;1.10;;;5.70;99.90;;;;;;4959321;28;20219;-63
2023/03/05 09:40:46;;;;;;;2.75;1.23;;;5.70;99.90;;;;;;4954007;28;20207;-63
2023/03/05 09:43:25;;;;;;;3.60;1.33;;;5.80;99.90;;;;;;4954485;28;20314;-63
2023/03/05 09:46:09;;;;;;;1.52;1.15;;;5.90;99.90;;;;;;4954219;28;20290;-63
2023/03/05 09:48:49;;;;;;;0.82;0.63;;;6.00;99.90;;;;;;4954144;28;20559;-63
2023/03/05 09:51:22;;;;;;;1.80;1.33;;;5.90;99.90;;;;;;4954086;28;20655;-63
2023/03/05 09:53:58;;;;;;;2.25;1.15;;;5.90;99.90;;;;;;4950272;28;20245;-63
2023/03/05 09:56:32;;;;;;;1.88;1.30;;;5.90;99.90;;;;;;4956470;28;20211;-63
2023/03/05 09:59:03;;;;;;;3.05;1.38;;;6.00;99.90;;;;;;4953572;28;20204;-63
2023/03/05 10:01:38;;;;;;;2.65;0.80;;;6.00;99.90;;;;;;4953715;28;20253;-63
2023/03/05 10:04:12;;;;;;;1.50;1.10;;;6.00;99.90;;;;;;4954103;28;20211;-63
2023/03/05 10:06:47;;;;;;;1.00;0.80;;;6.00;99.90;;;;;;4953794;28;20217;-63
2023/03/05 10:09:22;;;;;;;2.90;1.30;;;6.10;99.90;;;;;;4960282;28;20596;-63
2023/03/05 10:11:54;;;;;;;5.53;1.23;;;6.20;99.90;;;;;;4953686;28;20295;-63
2023/03/05 10:14:26;;;;;;;1.15;0.95;;;6.20;99.90;;;;;;4953830;28;20248;-63
2023/03/05 10:17:18;;;;;;;1.30;1.02;;;6.20;99.90;;;;;;4954162;28;20212;-63
2023/03/05 10:20:02;;;;;;;1.30;1.08;;;6.30;99.90;;;;;;4961392;28;20218;-63
2023/03/05 10:22:33;;;;;;;1.40;0.95;;;6.20;99.90;;;;;;4961067;28;20280;-63
2023/03/05 10:25:17;;;;;;;1.55;0.80;;;6.20;99.90;;;;;;4957289;28;20304;-63
2023/03/05 10:27:49;;;;;;;1.00;0.93;;;6.30;99.90;;;;;;4952870;28;20292;-63
2023/03/05 10:30:40;;;;;;;1.25;1.15;;;6.00;99.90;;;;;;4953524;28;20224;-63
2023/03/05 10:33:15;;;;;;;1.35;1.25;;;5.90;99.90;;;;;;4953339;28;20384;-63
2023/03/05 10:36:17;;;;;;;1.50;1.23;;;5.80;99.90;;;;;;4953370;28;20664;-63
2023/03/05 10:39:23;;;;;;;1.33;1.13;;;5.70;99.90;;;;;;4960524;28;20674;-63
2023/03/05 10:42:01;;;;;;;2.63;1.65;;;5.70;99.90;;;;;;4951058;28;20712;-63
2023/03/05 10:44:34;;;;;;;1.75;0.95;;;5.60;99.90;;;;;;4952853;28;20236;-63
2023/03/05 10:47:11;;;;;;;1.13;1.02;;;5.60;99.90;;;;;;4953436;28;20218;-63
2023/03/05 10:49:48;;;;;;;1.10;1.00;;;5.60;99.90;;;;;;4952987;28;20203;-63
2023/03/05 10:52:21;;;;;;;1.58;1.48;;;5.60;99.90;;;;;;4952509;28;20321;-63
2023/03/05 10:54:50;;;;;;;1.85;1.15;;;5.70;99.90;;;;;;4952748;28;20231;-63
2023/03/05 10:57:21;;;;;;;3.08;2.28;;;5.80;99.90;;;;;;4953096;28;20215;-63
2023/03/05 10:59:51;;;;;;;3.78;2.50;;;5.70;99.90;;;;;;4952672;28;20219;-63
2023/03/05 11:02:21;;;;;;;1.77;1.00;;;5.70;99.90;;;;;;4959688;28;20614;-63
2023/03/05 11:04:50;;;;;;;1.75;1.08;;;5.80;99.90;;;;;;4961467;28;20214;-63
2023/03/05 11:07:38;;;;;;;1.50;1.27;;;5.80;99.90;;;;;;4960539;28;20220;-63
2023/03/05 11:10:16;;;;;;;1.75;1.55;;;5.80;99.90;;;;;;4950165;28;20676;-63
2023/03/05 11:12:44;;;;;;;1.50;0.88;;;5.70;99.90;;;;;;4954793;28;20226;-63
2023/03/05 11:15:27;;;;;;;1.20;1.00;;;5.80;99.90;;;;;;4964453;28;20230;-63
2023/03/05 11:18:15;;;;;;;2.33;1.38;;;5.80;99.90;;;;;;4947685;28;20308;-64
2023/03/05 11:20:43;;;;;;;1.35;1.13;;;5.90;99.90;;;;;;4957397;28;20214;-63
2023/03/05 11:23:14;;;;;;;0.82;0.70;;;5.90;99.90;;;;;;4963962;28;20324;-63
2023/03/05 11:26:01;;;;;;;1.58;1.48;;;6.10;99.90;;;;;;4962182;28;20213;-63
2023/03/05 11:28:35;;;;;;;1.02;0.90;;;6.00;99.90;;;;;;4960289;28;20203;-62
2023/03/05 11:31:07;;;;;;;0.60;0.50;;;6.00;99.90;;;;;;4953929;28;20209;-63
2023/03/05 11:33:36;;;;;;;1.10;0.93;;;6.10;99.90;;;;;;4961438;28;20595;-62
2023/03/05 11:36:21;;;;;;;1.55;0.88;;;6.30;99.90;;;;;;4963924;28;20213;-64
2023/03/05 11:38:53;;;;;;;2.38;1.42;;;6.30;99.90;;;;;;4957197;28;20305;-63
2023/03/05 11:41:26;;;;;;;1.50;1.40;;;6.50;99.90;;;;;;4952406;28;20314;-63
2023/03/05 11:43:58;;;;;;;2.08;1.10;;;6.60;99.90;;;;;;4952120;28;20207;-63
2023/03/05 11:46:27;;;;;;;0.98;0.70;;;6.80;99.90;;;;;;4959742;28;20285;-63
2023/03/05 11:48:56;;;;;;;1.23;0.63;;;6.80;99.90;;;;;;4959963;28;20199;-63
2023/03/05 11:51:28;;;;;;;1.15;0.90;;;6.90;99.90;;;;;;4960214;28;20240;-63
2023/03/05 11:54:06;;;;;;;3.13;1.00;;;7.00;99.90;;;;;;4952640;28;20312;-63
2023/03/05 11:56:38;;;;;;;1.73;1.00;;;7.30;99.90;;;;;;4960652;28;20665;-63
2023/03/05 11:59:14;;;;;;;2.00;0.90;;;7.30;99.90;;;;;;4963519;28;20206;-63
2023/03/05 12:01:45;;;;;;;0.88;0.60;;;7.50;99.90;;;;;;4961820;28;20319;-63
2023/03/05 12:04:14;;;;;;;1.08;0.80;;;7.60;99.90;;;;;;4960363;28;20595;-63
2023/03/05 12:06:45;;;;;;;1.08;0.98;;;7.60;99.90;;;;;;4961377;28;20733;-63
2023/03/05 12:09:22;;;;;;;0.80;0.60;;;7.60;99.90;;;;;;4957877;28;20210;-63
2023/03/05 12:11:56;;;;;;;1.08;0.90;;;7.60;99.90;;;;;;4951260;28;20233;-63
2023/03/05 12:14:28;;;;;;;0.98;0.40;;;7.50;99.90;;;;;;4958719;28;20724;-63
2023/03/05 12:17:04;;;;;;;0.95;0.60;;;7.50;99.90;;;;;;4963417;28;20226;-63
2023/03/05 12:19:40;;;;;;;1.08;0.95;;;7.60;99.90;;;;;;4963187;28;20292;-63
2023/03/05 12:22:18;;;;;;;0.70;0.65;;;7.70;99.90;;;;;;4959514;28;20235;-63
2023/03/05 12:24:48;;;;;;;0.60;0.60;;;7.80;99.90;;;;;;4962045;28;20285;-63
2023/03/05 12:27:32;;;;;;;0.50;0.40;;;7.70;99.90;;;;;;4963370;28;20556;-63
2023/03/05 12:30:01;;;;;;;1.15;0.85;;;7.60;99.90;;;;;;4953653;28;20596;-63
2023/03/05 12:32:59;;;;;;;0.70;0.65;;;7.50;99.90;;;;;;4963092;28;20316;-63
2023/03/05 12:35:35;;;;;;;2.00;0.57;;;7.50;99.90;;;;;;4956238;28;20270;-63
2023/03/05 12:38:28;;;;;;;1.65;1.15;;;7.40;99.90;;;;;;4952925;28;20222;-63
2023/03/05 12:41:34;;;;;;;0.95;0.82;;;7.30;99.90;;;;;;4950966;28;20211;-63
2023/03/05 12:44:17;;;;;;;1.65;0.50;;;7.20;99.90;;;;;;4952615;28;20203;-63
2023/03/05 12:47:06;;;;;;;1.23;1.00;;;7.20;99.90;;;;;;4961460;28;20309;-64
2023/03/05 12:49:45;;;;;;;0.93;0.60;;;7.10;99.90;;;;;;4962699;28;20294;-63
2023/03/05 12:52:24;;;;;;;0.75;0.50;;;7.10;99.90;;;;;;4959782;28;20237;-63
2023/03/05 12:55:17;;;;;;;1.25;0.60;;;6.90;99.90;;;;;;4960706;28;20321;-62
2023/03/05 12:57:49;;;;;;;1.00;0.60;;;6.80;99.90;;;;;;4959296;28;20232;-63
2023/03/05 13:00:25;;;;;;;0.93;0.70;;;6.80;99.90;;;;;;4966470;28;20290;-64
2023/03/05 13:02:57;;;;;;;0.75;0.60;;;6.70;99.90;;;;;;4963674;28;20230;-63
2023/03/05 13:05:29;;;;;;;2.75;0.70;;;6.60;99.90;;;;;;4963298;28;20254;-63
2023/03/05 13:08:11;;;;;;;0.60;0.50;;;6.70;99.90;;;;;;4958352;28;20304;-63
2023/03/05 13:10:43;;;;;;;1.65;0.90;;;6.70;99.90;;;;;;4951984;28;20736;-63
2023/03/05 13:13:15;;;;;;;0.95;0.57;;;6.80;99.90;;;;;;4960057;28;20224;-63
2023/03/05 13:15:46;;;;;;;0.60;0.60;;;6.90;99.90;;;;;;4965231;28;20232;-63